• Join FlightAware (Why Join?)
  • Login
  • US Flag 
12:35AM EST


 

Airport Tracker/Info


-or-


 

Live Flight TrackerFlight Track Log ✈ N967F ✈ 02-Jul-2013 ✈ KPNE - KONA

Flight Track Log - Related Links

Times and Time Zones

All times are in EDT time to prevent confusion due to time zone crossing. See the N967F flight status page for this flight to view local times or setup timezone preferences in your user account.

Time Position Orientation Groundspeed Altitude Reporting Facility
EDT Latitude Longitude Course Direction KTS MPH feet Rate Location/Type
03:53PM 40.0667 -75.0333 255° West 154 177 800  Level Philadelphia TRACON
03:55PM 40.0500 -75.1167 249° West 226 260 3,300 2,340 Climbing Philadelphia TRACON
03:57PM 40.0228 -75.2325 253° West 183 211 8,600 2,280 Climbing New York Center
03:58PM 39.9886 -75.3089 240° Southwest 223 257 10,000 720 Climbing New York Center
03:59PM 39.9758 -75.4247 262° West 291 335 10,100 960 Climbing New York Center
04:00PM 39.9653 -75.5322 263° West 316 364 12,000 2,040 Climbing New York Center
04:01PM 39.9567 -75.6400 264° West 307 353 14,200 1,980 Climbing New York Center
04:02PM 39.9464 -75.7394 262° West 307 353 16,000 1,800 Climbing New York Center
04:03PM 39.9369 -75.8608 264° West 307 353 17,900 1,620 Climbing New York Center
04:04PM 39.9306 -75.9578 265° West 307 353 19,400 1,560 Climbing New York Center
04:05PM 39.9194 -76.0678 263° West 307 353 21,100 1,560 Climbing New York Center
04:06PM 39.9122 -76.1811 265° West 312 359 22,600 1,500 Climbing New York Center
04:07PM 39.9131 -76.2975 271° West 312 359 24,100 1,440 Climbing New York Center
04:08PM 39.9200 -76.4172 274° West 319 367 25,500 1,260 Climbing New York Center
04:09PM 39.9225 -76.5364 272° West 331 381 26,700 1,080 Climbing New York Center
04:10PM 39.9269 -76.6561 273° West 331 381 27,700 960 Climbing New York Center
04:11PM 39.9333 -76.7811 274° West 336 387 28,700 960 Climbing New York Center
04:12PM 39.9369 -76.9114 272° West 347 399 29,700 900 Climbing New York Center
04:13PM 39.9406 -77.0389 272° West 354 407 30,500 900 Climbing New York Center
04:14PM 39.9464 -77.1669 273° West 359 413 31,500 1,080 Climbing New York Center
04:15PM 39.9539 -77.2950 274° West 359 413 32,700 1,200 Climbing New York Center
04:17PM 39.9656 -77.6061 273° West 339 390 35,800 1,140 Climbing Cleveland Center
04:18PM 39.9686 -77.7225 272° West 334 384 36,800 960 Climbing Cleveland Center
04:19PM 39.9922 -77.8381 285° West 329 379 37,800 780 Climbing Cleveland Center
04:20PM 40.0281 -77.9314 297° West 334 384 38,400 600 Climbing Cleveland Center
04:21PM 40.0708 -78.0708 292° West 346 398 39,000 540 Climbing Cleveland Center
04:22PM 40.1131 -78.1914 295° West 353 406 39,500 480 Climbing Cleveland Center
04:23PM 40.1572 -78.3147 295° West 363 418 40,000 240 Climbing Cleveland Center
04:24PM 40.2011 -78.4383 295° West 368 423 40,000  Level Cleveland Center
04:25PM 40.2453 -78.5675 294° West 382 440 40,000  Level Cleveland Center
04:26PM 40.2936 -78.7022 295° West 394 453 40,000  Level Cleveland Center
04:27PM 40.3414 -78.8369 295° West 405 466 40,000  Level Cleveland Center
04:28PM 40.3914 -78.9775 295° West 412 474 40,000  Level Cleveland Center
04:29PM 40.4392 -79.1181 294° West 419 482 40,000  Level Cleveland Center
04:30PM 40.4889 -79.2592 295° West 419 482 40,000  Level Cleveland Center
04:31PM 40.5342 -79.3839 296° West 419 482 40,000  Level Cleveland Center
04:32PM 40.5833 -79.5250 295° West 419 482 40,000  Level Cleveland Center
04:33PM 40.6325 -79.6667 295° West 424 488 40,000  Level Cleveland Center
04:34PM 40.6839 -79.8219 294° West 424 488 40,000  Level Cleveland Center
04:35PM 40.7283 -79.9503 295° West 424 488 40,000  Level Cleveland Center
04:36PM 40.7769 -80.1142 291° West 429 494 40,000  Level Cleveland Center
04:37PM 40.8256 -80.2539 295° West 429 494 40,000  Level Cleveland Center
04:38PM 40.8694 -80.3800 295° West 429 494 40,000  Level Cleveland Center
04:39PM 40.9219 -80.5364 294° West 429 494 40,000  Level Cleveland Center
04:40PM 40.9678 -80.6794 293° West 424 488 40,000  Level Cleveland Center
04:41PM 41.0153 -80.8225 294° West 424 488 40,000  Level Cleveland Center
04:42PM 41.0608 -80.9658 293° West 424 488 40,000  Level Cleveland Center
04:43PM 41.1000 -81.0983 291° West 424 488 40,000  Level Cleveland Center
04:44PM 41.1472 -81.2422 294° West 429 494 40,000  Level Cleveland Center
04:45PM 41.1922 -81.3833 293° West 429 494 40,000  Level Cleveland Center
04:46PM 41.2472 -81.5469 294° West 429 494 40,000  Level Cleveland Center
04:47PM 41.2917 -81.6914 292° West 434 499 40,000  Level Cleveland Center
04:48PM 41.3381 -81.8358 293° West 429 494 40,000  Level Cleveland Center
04:49PM 41.3844 -81.9836 293° West 429 494 40,000  Level Cleveland Center
04:50PM 41.4203 -82.1172 290° West 435 501 40,000  Level Cleveland Center
04:51PM 41.4661 -82.2625 293° West 427 491 40,000  Level Cleveland Center
04:52PM 41.5119 -82.4078 293° West 419 482 40,000  Level Cleveland Center
04:53PM 41.5553 -82.5506 292° West 419 482 40,000  Level Cleveland Center
04:54PM 41.5986 -82.6961 292° West 419 482 40,000  Level Cleveland Center
04:55PM 41.6378 -82.8281 292° West 419 482 40,000  Level Cleveland Center
04:56PM 41.6847 -82.9828 292° West 412 474 40,000  Level Cleveland Center
04:57PM 41.7272 -83.1317 291° West 422 486 40,000  Level Cleveland Center
04:58PM 41.7697 -83.2783 291° West 422 486 40,000  Level Cleveland Center
04:59PM 41.8122 -83.4222 292° West 422 486 40,000  Level Cleveland Center
05:00PM 41.8564 -83.5719 292° West 422 486 40,000  Level Cleveland Center
05:01PM 41.8983 -83.7161 291° West 422 486 40,000  Level Cleveland Center
05:02PM 41.9442 -83.8636 293° West 422 486 40,000  Level Cleveland Center
05:03PM 41.9839 -84.0081 290° West 417 480 40,000  Level Cleveland Center
05:05PM 42.0767 -84.3156 292° West 418 481 40,000  Level Chicago Center
05:06PM 42.1272 -84.4908 291° West 419 482 40,000  Level Chicago Center
05:07PM 42.1675 -84.6386 290° West 421 484 40,000  Level Chicago Center
05:08PM 42.2086 -84.7864 291° West 421 484 40,000  Level Chicago Center
05:09PM 42.2500 -84.9339 291° West 422 486 40,000  Level Chicago Center
05:10PM 42.2922 -85.0842 291° West 427 491 40,000  Level Chicago Center
05:11PM 42.3331 -85.2339 290° West 426 490 40,000  Level Chicago Center
05:12PM 42.3739 -85.3853 290° West 429 494 40,000  Level Chicago Center
05:13PM 42.4231 -85.5683 290° West 431 496 40,000  Level Chicago Center
05:15PM 42.4636 -85.7192 290° West 427 491 40,000  Level Chicago Center
05:16PM 42.5039 -85.8722 290° West 430 495 40,000  Level Chicago Center
05:17PM 42.5458 -86.0283 290° West 436 502 40,000  Level Chicago Center
05:18PM 42.5867 -86.1875 289° West 444 511 40,000  Level Chicago Center
05:19PM 42.6267 -86.3400 290° West 432 497 40,000  Level Chicago Center
05:20PM 42.6669 -86.4967 289° West 429 494 40,000  Level Chicago Center
05:21PM 42.7156 -86.6797 290° West 432 497 40,000  Level Chicago Center
05:22PM 42.7556 -86.8344 289° West 430 495 40,000  Level Chicago Center
05:23PM 42.7942 -86.9911 289° West 433 498 40,000  Level Chicago Center
05:24PM 42.8344 -87.1433 290° West 430 495 40,000  Level Chicago Center
05:25PM 42.8742 -87.2981 289° West 432 497 40,000 -240 Level Chicago Center
05:26PM 42.9183 -87.4792 288° West 433 498 39,600 -540 Descending Chicago Center
05:27PM 42.9583 -87.6397 289° West 444 511 39,000 -600 Descending Chicago Center
05:28PM 43.0006 -87.8025 290° West 450 518 38,400 -660 Descending Chicago Center
05:29PM 43.0408 -87.9700 288° West 459 528 37,700 -780 Descending Chicago Center
05:30PM 43.0822 -88.1408 288° West 466 536 36,800 -840 Descending Chicago Center
05:31PM 43.1236 -88.3075 289° West 459 528 36,000 -840 Descending Chicago Center
05:32PM 43.1814 -88.4983 293° West 458 527 35,100 -840 Descending Chicago Center
05:33PM 43.2286 -88.6631 292° West 458 527 34,300 -840 Descending Chicago Center
05:34PM 43.2769 -88.8258 292° West 456 525 33,400 -960 Descending Chicago Center
05:35PM 43.3250 -88.9881 292° West 456 525 32,400 -1,020 Descending Chicago Center
05:36PM 43.3719 -89.1508 292° West 456 525 31,300 -1,200 Descending Chicago Center
05:37PM 43.4203 -89.3150 292° West 460 529 30,000 -1,380 Descending Chicago Center
05:38PM 43.4683 -89.4825 292° West 467 537 28,500 -1,620 Descending Chicago Center
05:39PM 43.5219 -89.6797 291° West 471 542 26,700 -1,680 Descending Chicago Center
05:40PM 43.5661 -89.8475 290° West 467 537 25,100 -1,560 Descending Chicago Center
05:41PM 43.6100 -90.0117 290° West 459 528 23,500 -1,560 Descending Chicago Center
05:42PM 43.6522 -90.1747 290° West 453 521 21,900 -1,620 Descending Chicago Center
05:43PM 43.6900 -90.3203 290° West 441 507 20,200 -1,920 Descending Chicago Center
05:44PM 43.7383 -90.5036 290° West 429 494 18,000 -1,860 Descending Chicago Center
05:46PM 43.7761 -90.6500 290° West 416 479 16,400 -1,740 Descending Chicago Center
05:47PM 43.8122 -90.7906 290° West 401 461 14,500 -1,800 Descending Chicago Center
05:48PM 43.8442 -90.9297 288° West 388 447 12,700 -1,980 Descending Chicago Center
05:49PM 43.8811 -91.0833 289° West 363 418 10,500 -1,920 Descending Chicago Center
05:50PM 43.9100 -91.1919 290° West 319 367 8,800 -1,740 Descending Chicago Center
05:51PM 43.9400 -91.3003 291° West 309 356 7,000 -1,680 Descending Chicago Center
05:52PM 43.9667 -91.3997 290° West 299 344 5,400 -1,440 Descending Chicago Center
05:53PM 43.9925 -91.4936 291° West 285 328 4,100 -1,260 Descending Chicago Center
05:54PM 44.0422 -91.6197 299° West 243 280 2,400 -840 Descending Minneapolis Center
05:55PM 44.0753 -91.6922 302° West 234 269 2,100 -300 Descending Minneapolis Center
05:57PM 44.0667 -91.7000 289° West  Level FlightAware Approximate
06:04PM 44.0772 -91.7083 289° West  Level Estimated
06:05PM 44.0772 -91.7083 289° West  Level Estimated